Startpagina
METAR-TAF:

METAR-TAF

Vliegvelden :

Luchthaven Mayotte-Dzaoudzi Pamandzi

Dzaoudzi, Mayotte

breedte: 12-48S, lengte: 045-17E, hoogte: 8 m

Actueel weer

Dit bericht is 35 minuten geleden gemaakt, om 17:00 UTC
Wind 13 kt uit het noordwesten
Temperatuur 27°C
Vochtigheid 84%
Druk 1011 hPa
Zicht 10 km of meer
geen wolken onder 1500 m en geen cumulonimbus

METAR: FMCZ 231700Z AUTO 32013KT CAVOK 27/24 Q1011

Tijdstip: 20:35 (17:35 UTC)

Verwachting

Dit bericht is 6 uur en het 35 minuten geleden gemaakt, om 11:00 UTC
Verwachting geldig van 23 om 12 UTC tot 24 om 12 UTC
Wind 11 kt uit het noordnoordwesten
Zicht 10 km of meer
Weinig wolken op 1200 ft
Verspreide wolken op 11000 ft
Gebroken wolken op 16000 ft
Kans 30% :
Tijdelijke
van 23 om 13 UTC tot 23 om 18 UTC
Zicht: 4000 m
regenbuien

TAF: FMCZ 231100Z 2312/2412 33011KT 9999 FEW012 SCT110 BKN160 PROB30 TEMPO 2313/2318 4000 SHRA

Waarnemingen en weersverwachtingen van meer dan 4000 vliegvelden (METAR en TAF).

De beschikbare stations zijn de gele en rode punten op de kaart.

Ga met uw muis naar het station om de naam te zien.

Klik dan om waarnemingen en weersverwachtingen te zien.

kaart wijzigen: klik op de groene knoppen met een zwart kruis om in te zoomen, op de groene knop met een streepje om uit te zoomen of op de groene pijlen voor aangrenzende kaarten.


METAR-TAF: